createdAt,value
2018-12-16T00:00:52.374Z,62.50
2018-12-16T00:03:18.387Z,62.00
2018-12-16T00:05:44.506Z,62.60
2018-12-16T00:08:10.515Z,62.70
2018-12-16T00:10:43.455Z,62.70
2018-12-16T00:13:09.480Z,62.90
2018-12-16T00:15:35.794Z,62.90
2018-12-16T00:18:01.818Z,62.40
2018-12-16T00:20:27.832Z,61.80
2018-12-16T00:22:53.976Z,61.50
2018-12-16T00:25:20.212Z,61.70
2018-12-16T00:27:46.238Z,62.30
2018-12-16T00:30:12.354Z,61.60
2018-12-16T00:32:38.390Z,62.20
2018-12-16T00:35:04.719Z,62.20
2018-12-16T00:37:30.749Z,62.90
2018-12-16T00:42:58.575Z,62.70
2018-12-16T00:45:24.595Z,62.40
2018-12-16T00:47:50.603Z,62.50
2018-12-16T00:50:16.610Z,61.90
2018-12-16T00:52:42.831Z,62.30
2018-12-16T00:55:09.044Z,62.70
2018-12-16T00:57:35.055Z,63.20
2018-12-16T01:00:01.287Z,63.40
2018-12-16T01:02:33.326Z,62.90
2018-12-16T01:04:59.451Z,63.60
2018-12-16T01:07:25.483Z,64.10
2018-12-16T01:09:51.611Z,64.30
2018-12-16T01:12:17.627Z,64.50
2018-12-16T01:14:43.676Z,64.50
2018-12-16T01:17:09.994Z,65.30
2018-12-16T01:19:36.002Z,65.60
2018-12-16T01:22:02.019Z,65.90
2018-12-16T01:24:28.147Z,66.40
2018-12-16T01:26:54.155Z,66.80
2018-12-16T01:29:20.179Z,67.10
2018-12-16T01:31:46.186Z,67.50
2018-12-16T01:34:19.327Z,68.50
2018-12-16T01:36:45.438Z,68.20
2018-12-16T01:39:11.450Z,68.60
2018-12-16T01:41:37.454Z,68.80
2018-12-16T01:44:04.034Z,69.00
2018-12-16T01:46:30.048Z,69.50
2018-12-16T01:48:56.061Z,69.50
2018-12-16T01:51:22.082Z,69.90
2018-12-16T01:53:48.090Z,70.10
2018-12-16T01:56:14.091Z,70.50
2018-12-16T01:58:40.103Z,70.90
2018-12-16T02:01:06.114Z,70.80
2018-12-16T02:03:32.418Z,71.20
2018-12-16T02:05:58.418Z,71.40
2018-12-16T02:08:24.427Z,71.70
2018-12-16T02:10:50.446Z,71.80
2018-12-16T02:13:16.446Z,72.00
2018-12-16T02:15:42.567Z,72.00
2018-12-16T02:18:08.575Z,72.40
2018-12-16T02:20:34.810Z,72.30
2018-12-16T02:23:00.814Z,72.60
2018-12-16T02:25:26.826Z,72.90
2018-12-16T02:27:52.859Z,72.80
2018-12-16T02:30:24.995Z,72.80
2018-12-16T02:32:57.999Z,73.00
2018-12-16T02:35:24.031Z,73.80
2018-12-16T02:37:50.175Z,73.20
2018-12-16T02:40:16.206Z,73.10
2018-12-16T02:42:42.632Z,73.50
2018-12-16T02:45:08.798Z,73.70
2018-12-16T02:47:35.039Z,73.80
2018-12-16T02:50:01.380Z,74.00
2018-12-16T02:52:27.403Z,74.00
2018-12-16T02:54:53.433Z,73.70
2018-12-16T02:57:19.464Z,74.00
2018-12-16T02:59:45.472Z,74.10
2018-12-16T03:02:11.490Z,74.50
2018-12-16T03:04:37.509Z,74.60
2018-12-16T03:07:03.579Z,74.40
2018-12-16T03:09:29.588Z,74.80
2018-12-16T03:11:55.712Z,74.60
2018-12-16T03:14:21.732Z,74.70
2018-12-16T03:16:48.012Z,74.80
2018-12-16T03:19:14.010Z,74.90
2018-12-16T03:21:40.018Z,75.00
2018-12-16T03:24:06.352Z,75.00
2018-12-16T03:26:35.754Z,75.10
2018-12-16T03:29:00.379Z,75.40
2018-12-16T03:31:26.405Z,75.40
2018-12-16T03:33:52.507Z,75.70
2018-12-16T03:36:18.804Z,75.60
2018-12-16T03:38:44.911Z,75.60
2018-12-16T03:41:10.935Z,75.70
2018-12-16T03:43:36.946Z,76.00
2018-12-16T03:46:03.056Z,76.00
2018-12-16T03:48:29.062Z,76.10
2018-12-16T03:50:55.066Z,76.20
2018-12-16T03:53:21.118Z,76.10
2018-12-16T03:55:47.137Z,76.10
2018-12-16T03:58:13.258Z,76.40
2018-12-16T04:00:39.398Z,76.30
2018-12-16T04:03:05.428Z,76.70
2018-12-16T04:05:31.439Z,76.30
2018-12-16T04:07:57.455Z,76.50
2018-12-16T04:10:23.511Z,76.60
2018-12-16T04:12:49.520Z,76.60
2018-12-16T04:15:16.025Z,76.60
2018-12-16T04:17:42.206Z,76.90
2018-12-16T04:20:08.442Z,76.80
2018-12-16T04:22:34.458Z,77.00
2018-12-16T04:25:00.470Z,77.00
2018-12-16T04:27:26.579Z,77.10
2018-12-16T04:29:52.699Z,77.10
2018-12-16T04:32:18.706Z,77.10
2018-12-16T04:34:44.728Z,77.10
2018-12-16T04:37:10.850Z,77.10
2018-12-16T04:39:36.989Z,77.40
2018-12-16T04:42:03.017Z,77.20
2018-12-16T04:44:29.038Z,77.40
2018-12-16T04:46:55.068Z,77.40
2018-12-16T04:49:21.199Z,77.40
2018-12-16T04:51:47.323Z,77.30
2018-12-16T04:54:13.369Z,77.50
2018-12-16T04:56:39.486Z,77.70
2018-12-16T04:59:05.515Z,77.70
2018-12-16T05:01:31.522Z,77.70
2018-12-16T05:03:57.656Z,77.50
2018-12-16T05:06:23.674Z,77.70
2018-12-16T05:08:49.690Z,77.40
2018-12-16T05:11:15.708Z,77.80
2018-12-16T05:13:41.726Z,77.70
2018-12-16T05:16:07.736Z,77.90
2018-12-16T05:18:33.866Z,77.90
2018-12-16T05:20:59.892Z,77.90
2018-12-16T05:23:25.918Z,77.70
2018-12-16T05:25:52.057Z,77.80
2018-12-16T05:28:18.175Z,77.60
2018-12-16T05:30:44.302Z,77.80
2018-12-16T05:33:10.330Z,77.90
2018-12-16T05:35:36.331Z,77.80
2018-12-16T05:38:02.347Z,77.90
2018-12-16T05:40:28.377Z,77.90
2018-12-16T05:42:54.385Z,77.90
2018-12-16T05:45:21.215Z,77.90
2018-12-16T05:47:47.238Z,77.80
2018-12-16T05:50:13.563Z,77.90
2018-12-16T05:52:39.558Z,78.00
2018-12-16T05:55:05.698Z,77.90
2018-12-16T05:57:31.814Z,77.90
2018-12-16T05:59:57.938Z,77.90
2018-12-16T06:02:24.087Z,77.90
2018-12-16T06:04:50.091Z,77.90
2018-12-16T06:07:16.098Z,78.00
2018-12-16T06:09:42.191Z,77.90
2018-12-16T06:12:08.203Z,77.90
2018-12-16T06:14:34.204Z,77.80
2018-12-16T06:17:00.571Z,78.00
2018-12-16T06:19:26.686Z,77.90
2018-12-16T06:21:52.690Z,77.90
2018-12-16T06:24:18.716Z,78.00
2018-12-16T06:26:44.836Z,77.90
2018-12-16T06:29:10.942Z,77.80
2018-12-16T06:31:36.976Z,77.60
2018-12-16T06:34:03.095Z,78.00
2018-12-16T06:36:29.102Z,77.90
2018-12-16T06:38:55.125Z,77.90
2018-12-16T06:41:21.151Z,78.00
2018-12-16T06:43:47.163Z,78.00
2018-12-16T06:46:13.425Z,78.60
2018-12-16T06:48:39.462Z,78.90
2018-12-16T06:51:05.455Z,78.10
2018-12-16T06:53:31.558Z,78.10
2018-12-16T06:55:57.587Z,78.20
2018-12-16T06:58:23.603Z,78.00
2018-12-16T07:00:49.621Z,78.00
2018-12-16T07:03:15.750Z,78.00
2018-12-16T07:05:41.761Z,77.70
2018-12-16T07:08:07.763Z,77.90
2018-12-16T07:10:33.910Z,78.00
2018-12-16T07:12:59.914Z,78.00
2018-12-16T07:15:25.927Z,78.00
2018-12-16T07:17:52.010Z,78.00
2018-12-16T07:20:18.053Z,78.00
2018-12-16T07:22:44.488Z,78.20
2018-12-16T07:25:10.610Z,77.90
2018-12-16T07:27:36.617Z,78.00
2018-12-16T07:30:04.266Z,78.00
2018-12-16T07:32:30.280Z,78.10
2018-12-16T07:34:56.406Z,78.10
2018-12-16T07:37:22.464Z,78.20
2018-12-16T07:39:48.550Z,78.20
2018-12-16T07:42:14.650Z,78.40
2018-12-16T07:44:40.890Z,78.20
2018-12-16T07:47:07.032Z,78.30
2018-12-16T07:49:33.060Z,78.40
2018-12-16T07:51:59.087Z,78.50
2018-12-16T07:54:25.101Z,78.40
2018-12-16T07:56:51.245Z,78.40
2018-12-16T07:59:17.247Z,78.30
2018-12-16T08:01:43.311Z,78.40
2018-12-16T08:04:09.423Z,78.50
2018-12-16T08:06:35.454Z,78.50
2018-12-16T08:09:01.575Z,78.50
2018-12-16T08:11:27.570Z,78.50
2018-12-16T08:13:53.586Z,78.50
2018-12-16T08:16:19.634Z,78.40
2018-12-16T08:18:45.658Z,78.40
2018-12-16T08:21:11.658Z,78.40
2018-12-16T08:23:37.667Z,78.40
2018-12-16T08:26:03.806Z,78.50
2018-12-16T08:28:29.939Z,78.40
2018-12-16T08:31:02.962Z,78.40
2018-12-16T08:33:28.965Z,78.50
2018-12-16T08:35:55.005Z,78.40
2018-12-16T08:38:21.039Z,78.50
2018-12-16T08:40:47.059Z,78.20
2018-12-16T08:43:13.083Z,78.70
2018-12-16T08:45:39.094Z,78.70
2018-12-16T08:48:05.487Z,78.70
2018-12-16T08:50:31.487Z,78.80
2018-12-16T08:52:57.494Z,78.90
2018-12-16T08:55:23.610Z,79.10
2018-12-16T08:57:49.614Z,79.70
2018-12-16T09:00:15.626Z,79.10
2018-12-16T09:02:41.630Z,79.20
2018-12-16T09:05:07.802Z,79.30
2018-12-16T09:07:37.215Z,79.10
2018-12-16T09:10:03.092Z,79.10
2018-12-16T09:12:29.199Z,79.10
2018-12-16T09:14:55.218Z,79.00
2018-12-16T09:17:21.332Z,79.30
2018-12-16T09:19:47.360Z,79.10
2018-12-16T09:22:13.472Z,79.30
2018-12-16T09:24:46.772Z,79.40
2018-12-16T09:27:12.775Z,79.50
2018-12-16T09:29:39.123Z,79.60
2018-12-16T09:32:05.136Z,79.80
2018-12-16T09:34:31.144Z,79.90
2018-12-16T09:36:57.384Z,79.90
2018-12-16T09:39:23.379Z,79.90
2018-12-16T09:41:49.400Z,80.90
2018-12-16T09:44:15.414Z,80.10
2018-12-16T09:46:41.423Z,80.00
2018-12-16T09:49:07.436Z,80.10
2018-12-16T09:51:33.587Z,80.10
2018-12-16T09:53:59.586Z,80.20
2018-12-16T09:56:32.553Z,80.10
2018-12-16T09:58:58.666Z,80.10
2018-12-16T10:01:24.787Z,80.10
2018-12-16T10:03:50.803Z,80.10
2018-12-16T10:06:17.032Z,79.90
2018-12-16T10:08:43.030Z,79.90
2018-12-16T10:11:09.071Z,80.10
2018-12-16T10:13:35.103Z,79.60
2018-12-16T10:16:01.115Z,79.70
2018-12-16T10:18:27.127Z,79.80
2018-12-16T10:20:53.250Z,79.80
2018-12-16T10:23:19.254Z,79.90
2018-12-16T10:25:45.279Z,80.00
2018-12-16T10:28:11.303Z,80.10
2018-12-16T10:30:37.306Z,80.20
2018-12-16T10:33:03.527Z,80.30
2018-12-16T10:35:29.553Z,80.40
2018-12-16T10:37:55.683Z,80.40
2018-12-16T10:40:21.794Z,80.50
2018-12-16T10:42:47.926Z,80.70
2018-12-16T10:45:14.289Z,80.70
2018-12-16T10:47:40.307Z,80.80
2018-12-16T10:50:06.520Z,80.50
2018-12-16T10:52:32.534Z,80.40
2018-12-16T10:54:58.921Z,80.30
2018-12-16T10:57:24.934Z,80.40
2018-12-16T10:59:50.934Z,80.40
2018-12-16T11:02:16.963Z,80.40
2018-12-16T11:04:42.980Z,80.30
2018-12-16T11:07:15.994Z,80.50
2018-12-16T11:09:42.010Z,80.40
2018-12-16T11:12:15.767Z,80.50
2018-12-16T11:14:41.934Z,80.70
2018-12-16T11:17:07.947Z,80.60
2018-12-16T11:19:34.058Z,80.70
2018-12-16T11:22:00.209Z,80.70
2018-12-16T11:24:26.332Z,80.60
2018-12-16T11:26:52.347Z,80.70
2018-12-16T11:29:18.363Z,80.90
2018-12-16T11:31:44.512Z,80.80
2018-12-16T11:34:10.626Z,81.00
2018-12-16T11:36:36.750Z,80.80
2018-12-16T11:39:05.462Z,80.90
2018-12-16T11:41:31.580Z,81.00
2018-12-16T11:43:57.706Z,80.50
2018-12-16T11:46:23.714Z,81.00
2018-12-16T11:48:49.723Z,81.60
2018-12-16T11:51:15.743Z,81.00
2018-12-16T11:53:41.987Z,80.70
2018-12-16T11:56:07.994Z,80.90
2018-12-16T11:58:34.110Z,80.80
2018-12-16T12:01:00.118Z,80.80
2018-12-16T12:03:26.130Z,80.70
2018-12-16T12:05:52.138Z,80.70
2018-12-16T12:08:18.259Z,80.80
2018-12-16T12:10:44.267Z,80.80
2018-12-16T12:13:10.293Z,80.80
2018-12-16T12:15:36.423Z,80.80
2018-12-16T12:18:02.659Z,80.40
2018-12-16T12:20:28.875Z,81.20
2018-12-16T12:22:55.109Z,81.40
2018-12-16T12:25:21.119Z,81.40
2018-12-16T12:27:47.256Z,81.50
2018-12-16T12:30:13.518Z,81.40
2018-12-16T12:32:39.550Z,81.80
2018-12-16T12:35:05.770Z,81.10
2018-12-16T12:37:31.791Z,81.00
2018-12-16T12:39:57.791Z,81.00
2018-12-16T12:42:23.802Z,81.20
2018-12-16T12:44:49.898Z,81.30
2018-12-16T12:47:15.927Z,81.30
2018-12-16T12:49:45.200Z,81.30
2018-12-16T12:52:10.275Z,81.30
2018-12-16T12:54:36.279Z,81.40
2018-12-16T12:57:02.399Z,81.30
2018-12-16T12:59:28.430Z,81.50
2018-12-16T13:01:54.451Z,81.40
2018-12-16T13:04:20.459Z,81.40
2018-12-16T13:06:46.471Z,81.60
2018-12-16T13:09:12.587Z,81.50
2018-12-16T13:11:38.611Z,81.40
2018-12-16T13:14:04.767Z,81.40
2018-12-16T13:16:30.780Z,81.40
2018-12-16T13:18:56.786Z,81.60
2018-12-16T13:21:23.266Z,82.20
2018-12-16T13:23:49.270Z,81.70
2018-12-16T13:26:15.539Z,81.70
2018-12-16T13:28:41.666Z,81.90
2018-12-16T13:31:07.728Z,81.70
2018-12-16T13:33:33.738Z,81.80
2018-12-16T13:35:59.864Z,81.70
2018-12-16T13:38:25.982Z,81.80
2018-12-16T13:40:52.223Z,81.90
2018-12-16T13:43:25.196Z,82.00
2018-12-16T13:45:51.315Z,82.00
2018-12-16T13:48:17.478Z,82.00
2018-12-16T13:50:43.527Z,82.00
2018-12-16T13:53:09.541Z,82.10
2018-12-16T13:55:40.791Z,82.30
2018-12-16T13:58:03.597Z,82.30
2018-12-16T14:00:29.712Z,82.30
2018-12-16T14:02:55.844Z,82.40
2018-12-16T14:05:21.967Z,82.30
2018-12-16T14:07:47.979Z,82.10
2018-12-16T14:10:14.098Z,82.20
2018-12-16T14:12:40.158Z,82.20
2018-12-16T14:15:06.586Z,82.40
2018-12-16T14:17:32.591Z,82.20
2018-12-16T14:19:58.599Z,82.20
2018-12-16T14:22:24.615Z,82.20
2018-12-16T14:24:50.615Z,82.20
2018-12-16T14:27:16.629Z,82.10
2018-12-16T14:29:42.640Z,82.10
2018-12-16T14:32:08.757Z,82.20
2018-12-16T14:34:34.770Z,82.20
2018-12-16T14:37:00.779Z,82.20
2018-12-16T14:39:26.797Z,82.00
2018-12-16T14:41:52.833Z,81.90
2018-12-16T14:44:18.959Z,82.00
2018-12-16T14:46:44.987Z,82.00
2018-12-16T14:49:11.028Z,82.10
2018-12-16T14:51:37.159Z,82.00
2018-12-16T14:54:03.287Z,82.20
2018-12-16T14:56:29.295Z,82.10
2018-12-16T14:58:55.528Z,82.10
2018-12-16T15:01:21.838Z,82.10
2018-12-16T15:03:47.837Z,82.10
2018-12-16T15:06:14.194Z,82.20
2018-12-16T15:08:40.430Z,82.20
2018-12-16T15:11:06.559Z,82.00
2018-12-16T15:13:33.192Z,82.20
2018-12-16T15:15:59.208Z,82.40
2018-12-16T15:18:25.270Z,82.40
2018-12-16T15:20:51.559Z,82.40
2018-12-16T15:23:17.581Z,83.10
2018-12-16T15:25:43.580Z,82.40
2018-12-16T15:28:09.619Z,82.30
2018-12-16T15:30:35.747Z,82.40
2018-12-16T15:33:01.778Z,82.30
2018-12-16T15:35:27.786Z,82.30
2018-12-16T15:37:53.926Z,82.30
2018-12-16T15:40:20.051Z,82.30
2018-12-16T15:42:46.187Z,82.40
2018-12-16T15:45:12.311Z,82.50
2018-12-16T15:47:38.432Z,82.50
2018-12-16T15:50:05.873Z,82.50
2018-12-16T15:52:31.888Z,82.70
2018-12-16T15:54:57.900Z,82.70
2018-12-16T15:57:23.902Z,82.70
2018-12-16T15:59:49.899Z,82.80
2018-12-16T16:02:15.914Z,82.70
2018-12-16T16:04:41.926Z,82.60
2018-12-16T16:07:07.955Z,82.70
2018-12-16T16:09:33.963Z,82.70
2018-12-16T16:11:59.987Z,82.60
2018-12-16T16:14:26.013Z,82.70
2018-12-16T16:16:52.187Z,82.60
2018-12-16T16:19:18.207Z,82.70
2018-12-16T16:21:44.264Z,82.70
2018-12-16T16:24:10.274Z,82.70
2018-12-16T16:26:36.303Z,82.80
2018-12-16T16:29:02.516Z,82.80
2018-12-16T16:31:28.535Z,82.70
2018-12-16T16:33:54.862Z,83.20
2018-12-16T16:36:20.993Z,82.80
2018-12-16T16:38:47.013Z,82.80
2018-12-16T16:41:13.038Z,82.80
2018-12-16T16:43:39.075Z,82.40
2018-12-16T16:46:05.108Z,83.50
2018-12-16T16:48:31.237Z,82.90
2018-12-16T16:50:57.278Z,82.90
2018-12-16T16:53:23.410Z,82.80
2018-12-16T16:55:49.432Z,82.80
2018-12-16T16:58:15.544Z,82.60
2018-12-16T17:00:41.684Z,82.90
2018-12-16T17:03:07.731Z,82.80
2018-12-16T17:05:33.733Z,82.90
2018-12-16T17:07:59.746Z,82.90
2018-12-16T17:10:25.882Z,82.90
2018-12-16T17:12:51.898Z,82.90
2018-12-16T17:15:18.138Z,82.90
2018-12-16T17:17:44.147Z,82.90
2018-12-16T17:20:10.154Z,83.00
2018-12-16T17:22:36.288Z,83.00
2018-12-16T17:25:02.510Z,83.00
2018-12-16T17:27:28.743Z,83.10
2018-12-16T17:29:54.771Z,83.00
2018-12-16T17:32:20.891Z,83.00
2018-12-16T17:34:46.910Z,83.00
2018-12-16T17:37:12.913Z,83.00
2018-12-16T17:39:38.935Z,83.10
2018-12-16T17:42:04.964Z,83.10
2018-12-16T17:44:31.314Z,83.00
2018-12-16T17:46:57.330Z,83.10
2018-12-16T17:49:23.355Z,83.10
2018-12-16T17:51:49.464Z,83.20
2018-12-16T17:54:15.478Z,83.10
2018-12-16T17:56:41.498Z,83.20
2018-12-16T17:59:07.603Z,83.40
2018-12-16T18:01:33.979Z,83.10
2018-12-16T18:03:59.979Z,83.20
2018-12-16T18:06:26.358Z,83.20
2018-12-16T18:08:52.381Z,83.30
2018-12-16T18:11:18.498Z,83.30
2018-12-16T18:13:44.622Z,83.30
2018-12-16T18:16:10.639Z,83.30
2018-12-16T18:18:36.665Z,83.20
2018-12-16T18:21:02.906Z,83.20
2018-12-16T18:23:29.870Z,83.20
2018-12-16T18:25:56.290Z,83.20
2018-12-16T18:28:22.421Z,83.20
2018-12-16T18:30:48.466Z,83.30
2018-12-16T18:33:14.802Z,83.30
2018-12-16T18:35:40.830Z,83.30
2018-12-16T18:38:06.872Z,83.20
2018-12-16T18:40:33.027Z,83.30
2018-12-16T18:42:59.058Z,83.20
2018-12-16T18:45:25.068Z,83.20
2018-12-16T18:47:51.151Z,83.10
2018-12-16T18:50:17.254Z,82.90
2018-12-16T18:52:43.283Z,83.00
2018-12-16T18:55:09.414Z,83.10
2018-12-16T18:57:35.417Z,83.20
2018-12-16T19:00:01.431Z,83.20
2018-12-16T19:02:27.683Z,83.30
2018-12-16T19:04:53.693Z,83.10
2018-12-16T19:07:19.710Z,83.20
2018-12-16T19:09:45.743Z,83.10
2018-12-16T19:12:11.747Z,83.00
2018-12-16T19:14:38.287Z,83.00
2018-12-16T19:17:04.318Z,83.10
2018-12-16T19:19:30.434Z,82.90
2018-12-16T19:21:56.566Z,83.10
2018-12-16T19:24:22.618Z,83.20
2018-12-16T19:26:48.635Z,83.20
2018-12-16T19:29:14.651Z,83.10
2018-12-16T19:31:40.682Z,83.20
2018-12-16T19:34:06.819Z,83.20
2018-12-16T19:36:32.851Z,83.00
2018-12-16T19:38:58.870Z,83.20
2018-12-16T19:41:25.128Z,83.20
2018-12-16T19:43:51.142Z,83.10
2018-12-16T19:46:17.165Z,83.00
2018-12-16T19:48:43.175Z,83.00
2018-12-16T19:51:09.223Z,83.10
2018-12-16T19:53:35.241Z,83.00
2018-12-16T19:56:01.263Z,82.90
2018-12-16T19:58:27.594Z,82.80
2018-12-16T20:00:53.743Z,82.70
2018-12-16T20:03:19.954Z,82.80
2018-12-16T20:05:52.363Z,82.90
2018-12-16T20:08:18.379Z,82.90
2018-12-16T20:10:44.395Z,82.90
2018-12-16T20:13:10.413Z,83.10
2018-12-16T20:15:36.419Z,83.00
2018-12-16T20:18:02.561Z,83.00
2018-12-16T20:20:28.567Z,83.00
2018-12-16T20:22:54.616Z,83.00
2018-12-16T20:25:20.638Z,83.10
2018-12-16T20:27:46.767Z,83.10
2018-12-16T20:30:12.780Z,83.00
2018-12-16T20:32:38.826Z,82.90
2018-12-16T20:35:05.288Z,82.90
2018-12-16T20:37:31.747Z,82.90
2018-12-16T20:39:57.757Z,82.90
2018-12-16T20:42:23.802Z,82.90
2018-12-16T20:44:49.802Z,82.90
2018-12-16T20:47:22.950Z,83.00
2018-12-16T20:49:48.958Z,83.10
2018-12-16T20:52:14.980Z,82.90
2018-12-16T20:54:40.990Z,82.80
2018-12-16T20:57:07.022Z,82.80
2018-12-16T20:59:33.143Z,82.90
2018-12-16T21:01:59.163Z,83.00
2018-12-16T21:04:25.184Z,83.10
2018-12-16T21:06:51.205Z,83.10
2018-12-16T21:09:17.366Z,83.00
2018-12-16T21:12:03.484Z,82.80
2018-12-16T21:14:35.558Z,82.80
2018-12-16T21:17:07.935Z,82.80
2018-12-16T21:19:34.274Z,82.90
2018-12-16T21:22:00.679Z,83.10
2018-12-16T21:24:26.687Z,83.10
2018-12-16T21:26:53.125Z,83.20
2018-12-16T21:29:19.141Z,83.20
2018-12-16T21:31:45.144Z,83.20
2018-12-16T21:34:11.181Z,83.10
2018-12-16T21:36:37.192Z,83.20
2018-12-16T21:39:04.418Z,83.30
2018-12-16T21:41:30.473Z,83.30
2018-12-16T21:43:56.605Z,83.30
2018-12-16T21:46:22.612Z,83.20
2018-12-16T21:48:48.627Z,83.20
2018-12-16T21:51:14.642Z,83.30
2018-12-16T21:53:40.680Z,83.40
2018-12-16T21:56:06.791Z,83.30
2018-12-16T21:58:32.927Z,83.30
2018-12-16T22:00:58.958Z,83.40
2018-12-16T22:03:24.992Z,83.40
2018-12-16T22:05:51.127Z,83.40
2018-12-16T22:08:17.144Z,83.50
2018-12-16T22:10:43.156Z,83.50
2018-12-16T22:13:09.183Z,83.50
2018-12-16T22:15:35.295Z,83.50
2018-12-16T22:18:01.303Z,83.50
2018-12-16T22:20:27.344Z,84.30
2018-12-16T22:22:53.338Z,83.70
2018-12-16T22:25:19.363Z,83.40
2018-12-16T22:27:45.388Z,83.30
2018-12-16T22:30:11.511Z,83.20
2018-12-16T22:32:37.535Z,83.30
2018-12-16T22:35:03.869Z,83.40
2018-12-16T22:37:36.853Z,83.30
2018-12-16T22:40:03.975Z,83.30
2018-12-16T22:42:29.984Z,83.30
2018-12-16T22:44:56.006Z,83.40
2018-12-16T22:47:22.027Z,83.40
2018-12-16T22:49:48.048Z,83.30
2018-12-16T22:52:14.056Z,83.30
2018-12-16T22:54:40.077Z,83.40
2018-12-16T22:57:06.092Z,83.50
2018-12-16T22:59:32.144Z,83.60
2018-12-16T23:01:58.154Z,83.40
2018-12-16T23:04:24.184Z,83.50
2018-12-16T23:06:50.312Z,83.60
2018-12-16T23:09:16.464Z,83.60
2018-12-16T23:11:42.693Z,83.80
2018-12-16T23:14:08.717Z,83.80
2018-12-16T23:16:34.839Z,83.80
2018-12-16T23:19:00.859Z,84.00
2018-12-16T23:21:26.967Z,84.10
2018-12-16T23:23:52.992Z,84.10
2018-12-16T23:26:19.022Z,84.10
2018-12-16T23:28:45.033Z,84.20
2018-12-16T23:31:11.056Z,84.30
2018-12-16T23:33:37.074Z,84.30
2018-12-16T23:36:03.303Z,84.30
2018-12-16T23:38:36.167Z,84.40
2018-12-16T23:41:02.292Z,84.50
2018-12-16T23:43:28.312Z,84.50
2018-12-16T23:45:54.310Z,84.50
2018-12-16T23:48:20.314Z,84.60
2018-12-16T23:50:46.438Z,84.60
2018-12-16T23:53:12.924Z,84.60
2018-12-16T23:55:39.055Z,84.70
2018-12-16T23:58:05.067Z,84.70
